Time;durP1;ratioP1;P1;durP2;ratioP2;P2;SDS_P1;SDS_P2;PMS_P1;PMS_P2;Temp;Humidity;BMP_temperature;BMP_pressure;BME280_temperature;BME280_humidity;BME280_pressure;Samples;Min_cycle;Max_cycle;Signal;HPM_P1;HPM_P2
2021/10/07 00:02:24;;;;;;;4.50;2.97;;;;;;;10.29;66.10;101496.03;4917352;28;122257;-59
2021/10/07 00:04:50;;;;;;;4.50;2.88;;;;;;;10.28;65.54;101499.78;4919266;28;126164;-59
2021/10/07 00:07:16;;;;;;;4.55;3.00;;;;;;;10.26;65.69;101503.81;4916829;28;125925;-59
2021/10/07 00:09:42;;;;;;;3.58;2.40;;;;;;;10.23;65.81;101506.94;4901983;28;119087;-59
2021/10/07 00:12:08;;;;;;;4.20;2.80;;;;;;;10.20;65.66;101507.41;4918446;28;97774;-61
2021/10/07 00:14:35;;;;;;;3.97;2.80;;;;;;;10.16;65.49;101501.69;4902402;28;97781;-61
2021/10/07 00:17:01;;;;;;;4.10;2.50;;;;;;;10.13;65.80;101501.34;4919638;28;98774;-61
2021/10/07 00:19:27;;;;;;;5.50;2.53;;;;;;;10.07;65.56;101517.41;4918918;28;126602;-59
2021/10/07 00:21:53;;;;;;;4.22;2.50;;;;;;;10.04;65.86;101514.38;4919521;28;113280;-61
2021/10/07 00:24:19;;;;;;;3.65;2.20;;;;;;;10.02;65.90;101519.16;4919965;28;104573;-61
2021/10/07 00:26:46;;;;;;;3.78;1.90;;;;;;;10.00;65.84;101516.72;4919119;28;127286;-59
2021/10/07 00:31:50;;;;;;;5.20;2.47;;;;;;;9.92;65.54;101517.09;4917517;28;98163;-59
2021/10/07 00:34:22;;;;;;;3.78;2.20;;;;;;;9.88;66.01;101507.03;4908097;28;98906;-61
2021/10/07 00:37:00;;;;;;;3.28;1.80;;;;;;;9.83;66.27;101513.13;4900849;28;98258;-59
2021/10/07 00:39:26;;;;;;;4.13;2.05;;;;;;;9.81;65.62;101520.63;4920173;28;97958;-61
2021/10/07 00:41:52;;;;;;;2.78;2.00;;;;;;;9.76;65.28;101524.03;4919330;28;105317;-61
2021/10/07 00:44:19;;;;;;;3.13;1.63;;;;;;;9.70;65.61;101518.75;4919513;28;98584;-61
2021/10/07 00:46:59;;;;;;;2.70;1.80;;;;;;;9.61;65.39;101522.88;4918671;28;98209;-61
2021/10/07 00:49:27;;;;;;;3.72;2.17;;;;;;;9.56;65.65;101521.69;4919650;28;98006;-61
2021/10/07 00:51:53;;;;;;;4.47;2.50;;;;;;;9.52;66.29;101527.78;4919602;28;97911;-61
2021/10/07 00:54:22;;;;;;;3.33;2.50;;;;;;;9.46;66.29;101537.59;4919847;28;98360;-59
2021/10/07 00:56:48;;;;;;;4.40;2.35;;;;;;;9.41;66.13;101532.13;4918998;28;98855;-59
2021/10/07 00:59:14;;;;;;;4.28;2.55;;;;;;;9.37;65.97;101544.41;4918783;28;111665;-61
2021/10/07 01:01:40;;;;;;;4.82;2.55;;;;;;;9.34;66.67;101542.97;4919320;28;123342;-62
2021/10/07 01:04:06;;;;;;;4.13;2.40;;;;;;;9.32;65.90;101544.28;4920109;28;98231;-61
2021/10/07 01:06:33;;;;;;;6.68;3.17;;;;;;;9.29;66.10;101544.75;4918436;28;108306;-59
2021/10/07 01:09:03;;;;;;;5.30;2.85;;;;;;;9.24;66.03;101537.38;4918270;28;126432;-61
2021/10/07 01:11:29;;;;;;;5.22;2.85;;;;;;;9.24;66.46;101547.31;4917597;28;97904;-59
2021/10/07 01:13:56;;;;;;;5.22;2.75;;;;;;;9.22;65.99;101538.66;4918337;28;126982;-61
2021/10/07 01:16:22;;;;;;;7.10;2.60;;;;;;;9.24;65.86;101544.63;4919093;28;104592;-59
2021/10/07 01:18:48;;;;;;;3.90;2.60;;;;;;;9.24;66.00;101537.38;4919302;28;98030;-61
2021/10/07 01:21:15;;;;;;;6.78;2.80;;;;;;;9.25;65.81;101546.25;4920065;28;98033;-61
2021/10/07 01:23:43;;;;;;;6.45;2.75;;;;;;;9.23;65.84;101548.34;4917446;28;98196;-61
2021/10/07 01:26:10;;;;;;;5.07;2.67;;;;;;;9.20;65.84;101552.34;4919321;28;98326;-61
2021/10/07 01:28:42;;;;;;;4.72;2.58;;;;;;;9.17;66.11;101549.28;4917379;28;98225;-59
2021/10/07 01:31:09;;;;;;;5.03;2.60;;;;;;;9.15;65.96;101552.19;4919791;28;97703;-59
2021/10/07 01:33:35;;;;;;;5.22;2.40;;;;;;;9.07;65.22;101552.53;4917344;28;98364;-59
2021/10/07 01:36:01;;;;;;;4.03;2.50;;;;;;;9.02;65.27;101555.09;4916514;28;127317;-61
2021/10/07 01:38:28;;;;;;;3.85;2.70;;;;;;;8.98;65.99;101564.69;4918562;28;98160;-61
2021/10/07 01:40:54;;;;;;;5.30;2.28;;;;;;;8.95;65.83;101567.81;4918184;28;103147;-62
2021/10/07 01:43:21;;;;;;;5.68;2.30;;;;;;;8.93;66.21;101564.56;4918887;28;98144;-61
2021/10/07 01:45:48;;;;;;;4.47;2.25;;;;;;;8.91;65.56;101569.34;4917640;28;98637;-59
2021/10/07 01:48:14;;;;;;;4.60;2.58;;;;;;;8.85;65.56;101565.72;4918946;28;98177;-61
2021/10/07 01:50:40;;;;;;;4.45;2.70;;;;;;;8.87;65.58;101568.16;4917020;28;114256;-59
2021/10/07 01:53:06;;;;;;;5.13;2.67;;;;;;;8.86;66.10;101567.34;4918305;28;127937;-59
2021/10/07 01:55:32;;;;;;;4.10;2.42;;;;;;;8.84;65.72;101575.66;4921815;28;119650;-61
2021/10/07 01:57:58;;;;;;;4.63;2.53;;;;;;;8.80;65.55;101569.09;4921053;28;125508;-59
2021/10/07 02:00:24;;;;;;;4.65;2.65;;;;;;;8.78;65.51;101573.84;4922002;28;123225;-59
2021/10/07 02:02:50;;;;;;;3.65;2.50;;;;;;;8.74;65.07;101571.84;4919880;28;127787;-59
2021/10/07 02:05:17;;;;;;;5.10;2.00;;;;;;;8.69;65.45;101569.03;4919643;28;127235;-59
2021/10/07 02:07:43;;;;;;;2.97;1.85;;;;;;;8.74;65.85;101577.25;4903609;28;98641;-61
2021/10/07 02:12:35;;;;;;;4.90;2.50;;;;;;;8.80;65.65;101577.16;4920164;28;127544;-59
2021/10/07 02:15:01;;;;;;;4.03;2.03;;;;;;;8.83;64.86;101582.06;4921035;28;128614;-59
2021/10/07 02:17:27;;;;;;;3.75;2.10;;;;;;;8.83;64.89;101578.53;4902619;28;127609;-59
2021/10/07 02:19:53;;;;;;;3.50;2.17;;;;;;;8.82;64.97;101576.91;4919800;28;121699;-59
2021/10/07 02:22:19;;;;;;;5.28;2.30;;;;;;;8.85;65.03;101587.22;4885905;28;127733;-59
2021/10/07 02:24:45;;;;;;;3.58;2.40;;;;;;;8.87;65.18;101579.72;4919458;28;128572;-59
2021/10/07 02:27:11;;;;;;;4.72;2.10;;;;;;;8.88;64.76;101586.75;4920025;28;127896;-61
2021/10/07 02:29:37;;;;;;;4.65;2.40;;;;;;;8.89;64.59;101587.59;4921543;28;121608;-59
2021/10/07 02:32:04;;;;;;;3.72;2.17;;;;;;;8.87;64.85;101585.09;4919882;28;127001;-59
2021/10/07 02:34:30;;;;;;;3.75;2.10;;;;;;;8.83;64.09;101592.00;4921405;28;116931;-61
2021/10/07 02:36:56;;;;;;;3.55;2.03;;;;;;;8.82;64.31;101595.72;4902323;28;128103;-59
2021/10/07 02:39:22;;;;;;;4.60;2.08;;;;;;;8.81;64.87;101599.47;4920723;28;122926;-59
2021/10/07 02:41:48;;;;;;;6.13;2.30;;;;;;;8.80;64.74;101598.66;4920068;28;129467;-61
2021/10/07 02:44:14;;;;;;;4.82;2.58;;;;;;;8.78;64.48;101600.75;4921291;28;121407;-62
2021/10/07 02:46:40;;;;;;;3.63;2.30;;;;;;;8.73;64.88;101607.88;4919912;28;127688;-59
2021/10/07 02:49:06;;;;;;;5.35;2.40;;;;;;;8.69;64.76;101610.19;4920668;28;123938;-59
2021/10/07 02:51:32;;;;;;;4.75;2.65;;;;;;;8.68;65.03;101613.91;4919999;28;127940;-61
2021/10/07 02:53:58;;;;;;;4.82;2.78;;;;;;;8.67;64.40;101624.88;4920293;28;127558;-61
2021/10/07 02:56:24;;;;;;;4.82;2.70;;;;;;;8.63;64.67;101619.13;4921550;28;110248;-61
2021/10/07 02:58:50;;;;;;;5.43;2.50;;;;;;;8.61;64.77;101626.63;4921339;28;97800;-59
2021/10/07 03:01:16;;;;;;;3.75;2.40;;;;;;;8.55;64.64;101633.72;4920551;28;127003;-61
2021/10/07 03:03:42;;;;;;;4.03;2.45;;;;;;;8.50;64.70;101633.56;4920085;28;127573;-61
2021/10/07 03:06:08;;;;;;;3.72;2.55;;;;;;;8.45;64.92;101630.75;4920753;28;97988;-59
2021/10/07 03:08:34;;;;;;;3.75;2.30;;;;;;;8.41;64.41;101636.78;4918652;28;122727;-61
2021/10/07 03:11:00;;;;;;;6.32;2.70;;;;;;;8.38;64.37;101639.94;4918236;28;126767;-59
2021/10/07 03:13:28;;;;;;;4.35;2.72;;;;;;;8.35;64.53;101644.66;4920117;28;126016;-59
2021/10/07 03:15:54;;;;;;;3.78;2.63;;;;;;;8.32;64.46;101645.09;4902633;28;97994;-61
2021/10/07 03:18:20;;;;;;;5.28;2.55;;;;;;;8.30;64.96;101652.56;4918417;28;122911;-59
2021/10/07 03:20:46;;;;;;;4.43;2.45;;;;;;;8.29;64.77;101647.41;4920587;28;127715;-59
2021/10/07 03:23:12;;;;;;;4.38;2.63;;;;;;;8.29;64.86;101650.09;4917922;28;126333;-59
2021/10/07 03:25:38;;;;;;;4.28;2.72;;;;;;;8.27;64.25;101642.28;4918226;28;127662;-61
2021/10/07 03:28:04;;;;;;;5.45;2.47;;;;;;;8.26;64.05;101653.25;4918014;28;122544;-59
2021/10/07 03:30:30;;;;;;;3.78;2.58;;;;;;;8.23;64.44;101651.81;4902958;28;98452;-61
2021/10/07 03:32:56;;;;;;;4.07;2.33;;;;;;;8.22;64.92;101660.94;4902004;28;117516;-61
2021/10/07 03:35:22;;;;;;;3.45;2.05;;;;;;;8.22;64.73;101666.31;4902553;28;99903;-59
2021/10/07 03:37:48;;;;;;;4.43;2.60;;;;;;;8.21;64.53;101674.56;4918018;28;122819;-59
2021/10/07 03:40:14;;;;;;;5.10;2.50;;;;;;;8.16;64.82;101669.88;4919547;28;128112;-59
2021/10/07 03:42:40;;;;;;;3.13;2.00;;;;;;;8.11;64.65;101673.22;4919968;28;128193;-61
2021/10/07 03:45:07;;;;;;;3.92;2.20;;;;;;;8.09;64.48;101677.16;4920554;28;127608;-61
2021/10/07 03:47:33;;;;;;;3.03;2.30;;;;;;;8.04;64.32;101669.78;4918787;28;98058;-61
2021/10/07 03:49:59;;;;;;;4.82;2.25;;;;;;;8.03;64.73;101672.69;4918812;28;97999;-59
2021/10/07 03:52:25;;;;;;;3.40;2.20;;;;;;;8.02;64.50;101685.31;4919198;28;128505;-62
2021/10/07 03:54:52;;;;;;;3.30;2.40;;;;;;;7.98;64.67;101686.78;4920242;28;116693;-59
2021/10/07 03:57:19;;;;;;;4.72;2.25;;;;;;;7.98;64.26;101686.78;4919946;28;97956;-59
2021/10/07 03:59:45;;;;;;;3.25;2.05;;;;;;;7.95;64.41;101686.41;4921040;28;98269;-58
2021/10/07 04:02:11;;;;;;;4.82;2.40;;;;;;;7.92;64.18;101686.84;4919221;28;113704;-59
2021/10/07 04:04:37;;;;;;;3.90;2.33;;;;;;;7.90;64.43;101689.75;4919554;28;127785;-59
2021/10/07 04:07:03;;;;;;;2.58;1.95;;;;;;;7.86;64.59;101686.69;4919716;28;122680;-61
2021/10/07 04:09:29;;;;;;;3.13;1.95;;;;;;;7.85;64.42;101700.31;4920537;28;98301;-61
2021/10/07 04:11:55;;;;;;;3.42;1.98;;;;;;;7.83;64.87;101697.03;4919351;28;122593;-61
2021/10/07 04:14:21;;;;;;;2.85;2.35;;;;;;;7.82;64.89;101698.91;4917806;28;127376;-59
2021/10/07 04:16:47;;;;;;;3.55;2.50;;;;;;;7.81;64.57;101699.09;4918974;28;122586;-61
2021/10/07 04:19:13;;;;;;;4.75;2.40;;;;;;;7.75;64.75;101700.81;4919567;28;126787;-59
2021/10/07 04:21:39;;;;;;;4.28;2.10;;;;;;;7.71;64.72;101698.78;4919412;28;127570;-59
2021/10/07 04:24:06;;;;;;;4.03;2.20;;;;;;;7.68;64.70;101700.03;4917519;28;99354;-59
2021/10/07 04:26:32;;;;;;;5.32;2.40;;;;;;;7.67;64.96;101709.13;4917577;28;101775;-61
2021/10/07 04:28:58;;;;;;;3.65;2.15;;;;;;;7.67;64.71;101714.50;4920293;28;98663;-59
2021/10/07 04:31:25;;;;;;;4.07;2.05;;;;;;;7.65;64.65;101705.84;4918554;28;117357;-59
2021/10/07 04:33:51;;;;;;;4.55;2.33;;;;;;;7.63;64.62;101706.06;4918985;28;125482;-59
2021/10/07 04:36:17;;;;;;;3.28;2.10;;;;;;;7.61;64.46;101715.34;4919593;28;122871;-59
2021/10/07 04:38:43;;;;;;;4.18;2.25;;;;;;;7.56;64.38;101707.97;4918533;28;128086;-59
2021/10/07 04:41:09;;;;;;;5.60;2.30;;;;;;;7.51;64.53;101718.53;4917011;28;128013;-61
2021/10/07 04:43:35;;;;;;;4.72;1.98;;;;;;;7.49;64.67;101717.91;4902073;28;97872;-61
2021/10/07 04:46:01;;;;;;;3.40;2.08;;;;;;;7.46;64.93;101721.03;4901796;28;97849;-61
2021/10/07 04:48:27;;;;;;;3.53;1.98;;;;;;;7.44;65.11;101730.34;4919125;28;110267;-62
2021/10/07 04:50:53;;;;;;;4.25;2.42;;;;;;;7.42;64.66;101730.53;4920082;28;105805;-61
2021/10/07 04:53:19;;;;;;;3.20;2.40;;;;;;;7.37;64.47;101730.38;4900166;28;128152;-61
2021/10/07 04:55:45;;;;;;;6.00;2.45;;;;;;;7.32;64.41;101736.41;4919758;28;114072;-61
2021/10/07 04:58:11;;;;;;;4.00;2.35;;;;;;;7.28;64.93;101735.19;4919662;28;98990;-59
2021/10/07 05:00:37;;;;;;;3.17;2.00;;;;;;;7.29;64.61;101741.38;4918258;28;98747;-59
2021/10/07 05:03:03;;;;;;;3.00;1.98;;;;;;;7.30;65.03;101741.13;4918191;28;116096;-59
2021/10/07 05:05:29;;;;;;;3.63;2.28;;;;;;;7.29;65.05;101744.03;4902562;28;97729;-59
2021/10/07 05:07:55;;;;;;;3.92;2.10;;;;;;;7.29;64.97;101746.72;4884557;28;117319;-61
2021/10/07 05:10:22;;;;;;;4.20;2.30;;;;;;;7.27;64.43;101755.00;4917454;28;127890;-61
2021/10/07 05:12:48;;;;;;;3.58;2.50;;;;;;;7.22;64.45;101768.22;4918392;28;125224;-59
2021/10/07 05:15:14;;;;;;;4.13;2.85;;;;;;;7.20;64.49;101766.78;4917456;28;109300;-59
2021/10/07 05:17:40;;;;;;;6.22;2.47;;;;;;;7.16;64.61;101774.44;4918522;28;114911;-59
2021/10/07 05:20:07;;;;;;;4.75;2.25;;;;;;;7.16;64.51;101763.72;4918982;28;128064;-59
2021/10/07 05:22:34;;;;;;;3.83;2.78;;;;;;;7.18;64.56;101768.84;4918577;28;99099;-58
2021/10/07 05:25:00;;;;;;;4.40;2.92;;;;;;;7.18;64.25;101768.84;4917672;28;110728;-61
2021/10/07 05:27:26;;;;;;;5.90;2.92;;;;;;;7.15;64.31;101770.09;4881584;28;110704;-61
2021/10/07 05:29:52;;;;;;;6.20;2.92;;;;;;;7.11;63.99;101774.22;4893341;28;127057;-58
2021/10/07 05:32:18;;;;;;;4.90;2.60;;;;;;;7.05;64.38;101765.19;4921450;28;125641;-61
2021/10/07 05:34:44;;;;;;;5.07;2.70;;;;;;;7.04;64.19;101766.25;4922523;28;114598;-59
2021/10/07 05:37:10;;;;;;;4.18;2.50;;;;;;;7.05;64.60;101772.41;4921370;28;127627;-61
2021/10/07 05:39:36;;;;;;;4.65;2.95;;;;;;;7.04;64.61;101786.88;4921528;28;98597;-59
2021/10/07 05:42:03;;;;;;;5.40;2.97;;;;;;;7.03;64.49;101782.53;4922533;28;97900;-59
2021/10/07 05:44:29;;;;;;;4.30;3.10;;;;;;;7.01;65.09;101780.06;4887764;28;98092;-61
2021/10/07 05:46:55;;;;;;;4.85;2.97;;;;;;;7.03;64.51;101777.97;4920996;28;128149;-59
2021/10/07 05:49:22;;;;;;;5.88;3.13;;;;;;;7.05;64.22;101778.59;4922303;28;127735;-61
2021/10/07 05:51:48;;;;;;;5.20;3.28;;;;;;;7.10;64.23;101780.63;4922163;28;99827;-59
2021/10/07 05:54:14;;;;;;;6.78;3.78;;;;;;;7.11;64.62;101784.97;4922352;28;97878;-61
2021/10/07 05:56:40;;;;;;;5.95;3.80;;;;;;;7.14;64.72;101788.03;4922200;28;98247;-61
2021/10/07 05:59:06;;;;;;;4.72;3.13;;;;;;;7.17;64.66;101789.50;4921393;28;129655;-61
2021/10/07 06:01:32;;;;;;;4.47;3.13;;;;;;;7.19;64.40;101791.94;4920391;28;117243;-59
2021/10/07 06:03:58;;;;;;;5.03;3.38;;;;;;;7.26;64.51;101800.78;4921082;28;121803;-59
2021/10/07 06:06:24;;;;;;;6.25;4.07;;;;;;;7.29;64.71;101798.50;4920814;28;127867;-59
2021/10/07 06:08:50;;;;;;;6.63;4.80;;;;;;;7.31;64.11;101807.19;4920311;28;128009;-59
2021/10/07 06:11:16;;;;;;;6.22;4.28;;;;;;;7.36;64.74;101803.84;4920302;28;124969;-61
2021/10/07 06:13:42;;;;;;;5.82;4.05;;;;;;;7.40;64.55;101809.63;4921937;28;120551;-61
2021/10/07 06:16:08;;;;;;;5.95;4.22;;;;;;;7.48;64.84;101804.00;4919758;28;128917;-61
2021/10/07 06:18:35;;;;;;;6.13;3.90;;;;;;;7.53;64.99;101815.72;4919818;28;128689;-58
2021/10/07 06:21:01;;;;;;;6.20;4.40;;;;;;;7.59;64.75;101812.19;4903278;28;98454;-59
2021/10/07 06:23:27;;;;;;;7.38;4.03;;;;;;;7.63;64.75;101817.97;4903990;28;97992;-58
2021/10/07 06:25:53;;;;;;;5.72;4.18;;;;;;;7.66;64.96;101822.06;4921804;28;98458;-61
2021/10/07 06:28:20;;;;;;;7.40;4.32;;;;;;;7.69;64.99;101808.22;4920109;28;127508;-61
2021/10/07 06:30:47;;;;;;;7.18;4.30;;;;;;;7.75;65.06;101820.78;4903287;28;98025;-59
2021/10/07 06:33:13;;;;;;;6.32;4.00;;;;;;;7.85;65.37;101815.75;4904092;28;99543;-61
2021/10/07 06:35:39;;;;;;;6.10;4.28;;;;;;;7.90;65.53;101823.16;4921794;28;99680;-59
2021/10/07 06:38:06;;;;;;;4.97;3.90;;;;;;;7.96;65.49;101830.34;4921494;28;98323;-61
2021/10/07 06:40:32;;;;;;;5.80;4.28;;;;;;;8.02;65.09;101824.94;4918268;28;128013;-59
2021/10/07 06:42:58;;;;;;;5.97;4.00;;;;;;;8.12;65.60;101827.13;4882690;28;122654;-61
2021/10/07 06:45:26;;;;;;;8.40;3.85;;;;;;;8.20;65.60;101828.72;4899288;28;127547;-59
2021/10/07 06:47:52;;;;;;;4.55;3.58;;;;;;;8.27;65.92;101824.97;4901418;28;98236;-61
2021/10/07 06:50:18;;;;;;;4.47;3.90;;;;;;;8.32;66.07;101819.75;4900744;28;97927;-59
2021/10/07 06:52:44;;;;;;;4.97;3.83;;;;;;;8.39;66.30;101825.09;4918805;28;120940;-59
2021/10/07 06:55:11;;;;;;;5.32;3.60;;;;;;;8.49;66.02;101825.44;4920663;28;98191;-62
2021/10/07 06:57:41;;;;;;;4.68;3.45;;;;;;;8.56;66.50;101823.47;4921390;28;97802;-61
2021/10/07 07:00:08;;;;;;;4.78;3.20;;;;;;;8.65;66.13;101829.44;4921639;28;98086;-61
2021/10/07 07:02:38;;;;;;;5.93;3.83;;;;;;;8.72;66.17;101829.34;4920776;28;97889;-59
2021/10/07 07:05:06;;;;;;;5.68;3.67;;;;;;;8.83;66.47;101829.44;4921197;28;98246;-61
2021/10/07 07:07:33;;;;;;;4.70;3.65;;;;;;;9.10;66.28;101840.72;4920772;28;97841;-61
2021/10/07 07:09:59;;;;;;;4.25;3.72;;;;;;;9.15;66.82;101850.00;4920769;28;98190;-59
2021/10/07 07:12:25;;;;;;;5.38;3.20;;;;;;;9.29;66.95;101848.81;4921287;28;101693;-59
2021/10/07 07:14:52;;;;;;;4.18;3.25;;;;;;;9.36;66.61;101857.63;4920593;28;119825;-59
2021/10/07 07:17:18;;;;;;;3.95;2.95;;;;;;;9.46;67.28;101846.31;4920991;28;106914;-59
2021/10/07 07:19:48;;;;;;;5.28;3.22;;;;;;;9.58;66.84;101858.78;4920897;28;120253;-59
2021/10/07 07:22:15;;;;;;;4.40;3.08;;;;;;;9.77;67.03;101859.56;4920709;28;98009;-61
2021/10/07 07:24:41;;;;;;;4.20;3.80;;;;;;;9.97;66.54;101863.84;4920981;28;98275;-61
2021/10/07 07:27:08;;;;;;;5.43;3.30;;;;;;;10.14;65.74;101864.00;4918333;28;97926;-59
2021/10/07 07:29:34;;;;;;;5.03;3.20;;;;;;;10.29;66.51;101867.13;4919455;28;98169;-61
2021/10/07 07:32:00;;;;;;;5.43;3.38;;;;;;;10.48;65.78;101868.69;4919273;28;121380;-61
2021/10/07 07:34:27;;;;;;;4.35;3.33;;;;;;;10.64;66.00;101860.97;4920686;28;108607;-61
2021/10/07 07:36:53;;;;;;;5.15;3.15;;;;;;;10.80;65.44;101857.56;4919815;28;98960;-59
2021/10/07 07:39:19;;;;;;;8.65;6.00;;;;;;;10.98;65.50;101859.31;4920217;28;97999;-60
2021/10/07 07:41:45;;;;;;;5.70;3.53;;;;;;;11.16;65.15;101878.06;4919505;28;122722;-61
2021/10/07 07:44:11;;;;;;;4.60;3.45;;;;;;;11.35;64.95;101875.22;4917344;28;127748;-59
2021/10/07 07:46:38;;;;;;;7.22;3.92;;;;;;;11.62;64.54;101872.78;4919670;28;126301;-59
2021/10/07 07:49:04;;;;;;;4.38;3.75;;;;;;;11.90;64.08;101877.41;4920858;28;98446;-60
2021/10/07 07:51:32;;;;;;;6.03;3.90;;;;;;;12.10;63.78;101875.06;4919168;28;115385;-59
2021/10/07 07:53:58;;;;;;;4.22;3.50;;;;;;;12.43;62.72;101870.75;4921117;28;97805;-61
2021/10/07 07:56:24;;;;;;;4.25;3.42;;;;;;;12.92;61.37;101870.97;4918548;28;98150;-60
2021/10/07 07:58:50;;;;;;;5.28;3.35;;;;;;;13.56;59.71;101875.88;4917909;28;126661;-61
2021/10/07 08:01:16;;;;;;;4.95;3.00;;;;;;;13.57;60.38;101875.63;4917881;28;118913;-61
2021/10/07 08:03:42;;;;;;;5.53;3.33;;;;;;;15.15;56.81;101876.16;4902228;28;98356;-61
2021/10/07 08:06:08;;;;;;;4.13;3.22;;;;;;;16.11;54.64;101889.28;4920005;28;126072;-61
2021/10/07 08:08:34;;;;;;;4.20;2.90;;;;;;;16.37;54.15;101892.00;4919674;28;126626;-61
2021/10/07 08:11:00;;;;;;;4.35;3.40;;;;;;;17.33;52.07;101891.06;4917916;28;123594;-61
2021/10/07 08:13:26;;;;;;;3.70;3.30;;;;;;;17.18;52.33;101888.41;4918690;28;127841;-61
2021/10/07 08:15:52;;;;;;;4.47;3.40;;;;;;;17.25;52.60;101904.44;4920120;28;127689;-61
2021/10/07 08:18:19;;;;;;;4.97;3.67;;;;;;;19.18;48.88;101904.19;4919869;28;126460;-60
2021/10/07 08:20:45;;;;;;;4.35;3.38;;;;;;;21.87;44.06;101908.25;4918893;28;98106;-60
2021/10/07 08:23:13;;;;;;;5.03;2.65;;;;;;;25.94;37.55;101927.97;4919660;28;98975;-62
2021/10/07 08:25:40;;;;;;;4.85;3.00;;;;;;;30.16;31.31;101954.28;4920191;28;99000;-61
2021/10/07 08:28:08;;;;;;;3.42;2.35;;;;;;;32.99;28.87;101960.13;4919769;28;97972;-61
2021/10/07 08:30:35;;;;;;;3.70;2.42;;;;;;;35.27;26.22;101958.66;4920498;28;97838;-62
2021/10/07 08:33:01;;;;;;;2.88;2.20;;;;;;;37.12;24.19;101944.97;4919416;28;97915;-62
2021/10/07 08:35:27;;;;;;;2.72;2.00;;;;;;;38.72;22.07;101939.38;4920286;28;99448;-62
2021/10/07 08:37:53;;;;;;;3.70;2.35;;;;;;;39.93;21.04;101927.88;4918315;28;113964;-62
2021/10/07 08:40:19;;;;;;;2.92;2.30;;;;;;;40.87;20.45;101921.63;4917881;28;108411;-62
2021/10/07 08:42:46;;;;;;;3.47;2.30;;;;;;;41.52;19.30;101912.25;4918697;28;126771;-59
2021/10/07 08:45:12;;;;;;;3.15;2.03;;;;;;;41.21;19.47;101901.38;4919849;28;99151;-60
2021/10/07 08:47:40;;;;;;;2.65;2.10;;;;;;;40.11;20.61;101890.78;4920066;28;97864;-60
2021/10/07 08:50:10;;;;;;;3.00;1.75;;;;;;;41.08;19.87;101877.94;4920506;28;97884;-59
2021/10/07 08:52:36;;;;;;;3.83;2.00;;;;;;;42.68;18.06;101877.88;4918956;28;105234;-60
2021/10/07 08:55:03;;;;;;;2.75;1.85;;;;;;;43.57;17.75;101871.06;4918719;28;120294;-60
2021/10/07 08:57:29;;;;;;;3.03;1.85;;;;;;;44.16;16.82;101862.66;4918899;28;111732;-59
2021/10/07 08:59:55;;;;;;;4.60;2.05;;;;;;;44.46;16.33;101858.97;4918794;28;122647;-60
2021/10/07 09:02:31;;;;;;;2.38;1.83;;;;;;;44.75;16.86;101847.16;4918186;28;127841;-59
2021/10/07 09:05:22;;;;;;;3.08;2.00;;;;;;;44.71;16.83;101854.28;4922461;28;98405;-59
2021/10/07 09:08:05;;;;;;;3.00;2.20;;;;;;;42.21;18.61;101841.81;4922367;28;97987;-59
2021/10/07 09:10:49;;;;;;;3.13;1.95;;;;;;;40.61;19.73;101833.16;4923299;28;98150;-60
2021/10/07 09:13:18;;;;;;;2.70;1.80;;;;;;;41.69;17.87;101840.19;4904592;28;99422;-59
2021/10/07 09:15:50;;;;;;;2.60;1.60;;;;;;;42.67;17.02;101839.47;4922084;28;100161;-59
2021/10/07 09:18:17;;;;;;;1.98;1.60;;;;;;;42.38;17.23;101843.28;4903341;28;98327;-61
2021/10/07 09:20:46;;;;;;;3.40;1.38;;;;;;;40.94;17.99;101823.34;4905820;28;97989;-60
2021/10/07 09:23:24;;;;;;;3.05;1.50;;;;;;;40.69;18.85;101826.06;4901245;28;98077;-61
2021/10/07 09:25:59;;;;;;;2.17;1.38;;;;;;;40.98;18.72;101828.94;4903249;28;99608;-60
2021/10/07 09:28:29;;;;;;;2.45;1.40;;;;;;;39.47;19.09;101814.00;4903819;28;97894;-61
2021/10/07 09:30:59;;;;;;;2.95;1.48;;;;;;;40.09;18.64;101822.69;4901520;28;97909;-59
2021/10/07 09:33:35;;;;;;;1.92;1.13;;;;;;;38.92;19.56;101818.34;4910675;28;99347;-61
2021/10/07 09:36:16;;;;;;;1.40;1.17;;;;;;;36.24;22.55;101805.69;4921934;28;98567;-61
2021/10/07 09:38:43;;;;;;;;;;;;;;;35.33;24.19;101795.34;4923543;28;98723;-61
2021/10/07 09:41:15;;;;;;;1.48;0.63;;;;;;;36.30;22.50;101794.81;4922996;28;113264;-61
2021/10/07 09:43:51;;;;;;;2.25;1.17;;;;;;;38.22;20.78;101814.25;4922294;28;98747;-59
2021/10/07 09:46:50;;;;;;;2.22;0.70;;;;;;;40.76;18.61;101817.41;4921238;28;118210;-59
2021/10/07 09:49:17;;;;;;;2.40;0.75;;;;;;;40.38;17.81;101823.59;4922707;28;98039;-61
2021/10/07 09:51:48;;;;;;;2.17;0.80;;;;;;;40.20;17.80;101807.09;4921851;28;118384;-62
2021/10/07 09:54:24;;;;;;;2.50;0.70;;;;;;;39.72;18.87;101808.63;4922757;28;98463;-63
2021/10/07 09:56:59;;;;;;;2.30;0.70;;;;;;;39.07;19.25;101805.56;4921920;28;98077;-59
2021/10/07 09:59:26;;;;;;;1.85;0.60;;;;;;;38.24;19.24;101816.63;4922200;28;97773;-59
2021/10/07 10:01:55;;;;;;;1.55;0.63;;;;;;;38.55;19.53;101809.72;4922366;28;98013;-59
2021/10/07 10:04:22;;;;;;;1.75;0.60;;;;;;;39.45;18.79;101811.63;4921833;28;97965;-63
2021/10/07 10:06:48;;;;;;;2.63;0.40;;;;;;;39.21;18.58;101812.91;4920483;28;99870;-61
2021/10/07 10:09:14;;;;;;;1.42;0.50;;;;;;;38.60;19.53;101808.44;4921393;28;125624;-65
2021/10/07 10:11:43;;;;;;;2.22;0.50;;;;;;;37.61;20.17;101808.69;4920869;28;120585;-61
2021/10/07 10:14:09;;;;;;;1.85;0.43;;;;;;;35.96;21.44;101803.88;4920618;28;127300;-63
2021/10/07 10:16:39;;;;;;;2.08;0.50;;;;;;;34.49;22.74;101805.50;4920890;28;126765;-61
2021/10/07 10:19:06;;;;;;;1.77;0.50;;;;;;;33.26;24.19;101802.72;4888378;28;98090;-61
2021/10/07 10:21:35;;;;;;;1.80;0.50;;;;;;;32.48;24.74;101803.78;4887837;28;97841;-63
2021/10/07 10:24:03;;;;;;;1.63;0.50;;;;;;;31.88;25.22;101798.41;4921572;28;119524;-61
2021/10/07 10:26:29;;;;;;;2.47;0.50;;;;;;;31.33;25.75;101798.13;4904405;28;98376;-64
2021/10/07 10:28:55;;;;;;;3.55;0.60;;;;;;;30.79;26.53;101794.53;4921722;28;97911;-63
2021/10/07 10:31:39;;;;;;;1.92;0.47;;;;;;;30.27;27.09;101796.84;4921788;28;97791;-64
2021/10/07 10:34:13;;;;;;;1.63;0.40;;;;;;;29.51;28.00;101795.69;4921491;28;99138;-61
2021/10/07 10:36:41;;;;;;;1.95;0.50;;;;;;;29.00;28.26;101812.41;4902475;28;98682;-61
2021/10/07 10:39:13;;;;;;;2.15;0.60;;;;;;;28.52;28.55;101803.31;4902825;28;97953;-63
2021/10/07 10:41:49;;;;;;;1.90;0.60;;;;;;;27.95;29.56;101810.91;4905153;28;98317;-61
2021/10/07 10:44:46;;;;;;;1.70;0.65;;;;;;;27.51;30.00;101815.53;4922227;28;98392;-63
2021/10/07 10:47:12;;;;;;;2.65;0.75;;;;;;;27.19;30.41;101815.38;4920908;28;99153;-63
2021/10/07 10:49:46;;;;;;;2.60;0.60;;;;;;;26.96;30.76;101815.06;4922100;28;98315;-61
2021/10/07 10:52:18;;;;;;;2.00;0.77;;;;;;;26.81;31.02;101818.50;4920801;28;99829;-61
2021/10/07 10:54:46;;;;;;;;;;;;;;;26.75;31.16;101815.16;4921222;28;114712;-61
2021/10/07 10:57:49;;;;;;;2.63;0.85;;;;;;;26.53;31.58;101816.41;4918996;28;109459;-62
2021/10/07 11:00:32;;;;;;;2.17;0.82;;;;;;;26.47;31.92;101817.78;4889348;28;99476;-61
2021/10/07 11:03:10;;;;;;;2.88;0.80;;;;;;;26.37;31.99;101816.25;4921417;28;98160;-61
2021/10/07 11:05:41;;;;;;;3.30;1.00;;;;;;;26.29;31.85;101816.31;4920786;28;98461;-63
2021/10/07 11:08:20;;;;;;;2.72;1.10;;;;;;;26.20;32.13;101820.00;4918957;28;98059;-65
2021/10/07 11:10:50;;;;;;;2.47;0.77;;;;;;;26.14;31.90;101828.84;4920984;28;98368;-63
2021/10/07 11:13:24;;;;;;;2.63;0.82;;;;;;;26.14;32.06;101829.66;4920169;28;98054;-63
2021/10/07 11:15:59;;;;;;;3.00;0.50;;;;;;;26.13;31.87;101828.06;4918896;28;98029;-61
2021/10/07 11:18:33;;;;;;;2.05;0.40;;;;;;;26.20;31.60;101825.50;4921207;28;98586;-61
2021/10/07 11:21:06;;;;;;;2.75;0.40;;;;;;;26.29;31.45;101825.44;4921093;28;98219;-64
2021/10/07 11:23:33;;;;;;;2.30;0.47;;;;;;;26.39;30.91;101824.19;4921540;28;97828;-64
2021/10/07 11:26:00;;;;;;;1.83;0.50;;;;;;;26.36;30.89;101822.09;4919695;28;98976;-64
2021/10/07 11:28:37;;;;;;;1.60;0.30;;;;;;;26.24;30.74;101824.84;4901992;28;120455;-64
2021/10/07 11:31:14;;;;;;;1.98;0.30;;;;;;;25.99;31.63;101829.50;4920416;28;98202;-64
2021/10/07 11:33:51;;;;;;;1.45;0.20;;;;;;;25.78;31.12;101823.97;4918149;28;112559;-61
2021/10/07 11:36:26;;;;;;;2.28;0.20;;;;;;;25.67;31.31;101829.09;4918693;28;98422;-63